Archival Weather

Heathrow

London, United Kingdom (EGLL)

Report from: Sunday, March 19, 2023 2:20 AM GMT
Current time: Tuesday, July 16, 2024 4:46 PM BST

Current weather – Weather history – Daily summaries
Weather forecast

Present weatherLight rain
Temperature8.0°C (46.4°F)
Wind chill6.4°C (43.5°F)
Dew point5.0°C (41.0°F)
Winds 5 kts (2.6 m/s, 5.8 mph) Vrb
Winds variableWinds variable from West-Northwest (290°) to North (10°)
Visibility6.2 mi. (10 km)
Clouds Few clouds 1,500 ft. (457 m)
Ceiling: Broken clouds 3,500 ft. (1,067 m)
Overcast 4,200 ft. (1,280 m)
Altimeter29.85 in.Hg (1011 mB)
Relative humidity81 %
Density altitude-637 ft. (-194 m)
Remarks Fully automated report
Corrected report
No significant changes expected in the next two hours
Flight conditions Visual Meteorological Conditions
Raw dataCOR EGLL 190220Z AUTO 33005KT 290V010 9999 -RA FEW015/// BKN035/// OVC042/// //////TCU 08/05 Q1011 NOSIG
An error has occurred. This application may no longer respond until reloaded. Reload 🗙